Time;durP1;ratioP1;P1;durP2;ratioP2;P2;SDS_P1;SDS_P2;PMS_P1;PMS_P2;Temp;Humidity;BMP_temperature;BMP_pressure;BME280_temperature;BME280_humidity;BME280_pressure;Samples;Min_cycle;Max_cycle;Signal;HPM_P1;HPM_P2
2023/03/09 00:01:53;;;;;;;1.63;1.03;;;;;;;-145.69;100.00;52472.13;5105634;28;20197;-82
2023/03/09 00:04:19;;;;;;;0.70;0.67;;;;;;;-145.69;100.00;52460.22;5114305;28;20198;-82
2023/03/09 00:06:46;;;;;;;0.97;0.80;;;;;;;-145.69;100.00;52472.13;5114794;28;20207;-82
2023/03/09 00:09:16;;;;;;;3.23;1.00;;;;;;;-145.69;100.00;52432.50;5114461;28;20220;-83
2023/03/09 00:11:44;;;;;;;2.97;0.90;;;;;;;-145.69;100.00;52448.34;5115352;28;20197;-82
2023/03/09 00:14:11;;;;;;;6.23;0.80;;;;;;;-145.69;100.00;52456.28;5113675;28;20190;-82
2023/03/09 00:16:39;;;;;;;2.03;0.87;;;;;;;-145.69;100.00;52474.09;5113039;28;20706;-81
2023/03/09 00:19:06;;;;;;;3.63;0.80;;;;;;;-145.69;100.00;52456.28;5113088;28;20686;-82
2023/03/09 00:21:36;;;;;;;4.03;1.60;;;;;;;-145.69;100.00;52503.81;5113597;28;20220;-81
2023/03/09 00:24:04;;;;;;;1.60;0.80;;;;;;;-145.69;100.00;52432.50;5113437;28;20197;-81
2023/03/09 00:26:32;;;;;;;2.27;0.80;;;;;;;-145.69;100.00;52482.00;5113301;28;20194;-83
2023/03/09 00:28:59;;;;;;;4.07;1.00;;;;;;;-145.69;100.00;52484.00;5113437;28;20193;-83
2023/03/09 00:31:26;;;;;;;2.90;0.80;;;;;;;-145.69;100.00;52470.13;5113909;28;20210;-82
2023/03/09 00:33:53;;;;;;;1.20;0.80;;;;;;;-145.69;100.00;52466.16;5114626;28;20205;-82
2023/03/09 00:36:19;;;;;;;3.50;0.87;;;;;;;-145.69;100.00;52464.19;5114315;28;20227;-83
2023/03/09 00:38:51;;;;;;;3.27;0.60;;;;;;;-145.69;100.00;52472.13;5113577;28;20239;-83
2023/03/09 00:41:17;;;;;;;1.13;0.60;;;;;;;-145.69;100.00;52505.78;5114712;28;20225;-83
2023/03/09 00:43:45;;;;;;;0.93;0.73;;;;;;;-145.69;100.00;52484.00;5119610;28;20236;-84
2023/03/09 00:46:12;;;;;;;1.07;0.80;;;;;;;-145.69;100.00;52491.91;5113155;28;20197;-83
2023/03/09 00:48:39;;;;;;;2.73;0.63;;;;;;;-145.69;100.00;52468.16;5115916;28;20321;-83
2023/03/09 00:51:06;;;;;;;1.90;0.90;;;;;;;-145.69;100.00;52454.28;5116764;28;20198;-84
2023/03/09 00:53:33;;;;;;;0.80;0.70;;;;;;;-145.69;100.00;52478.06;5114761;28;20659;-84
2023/03/09 00:56:02;;;;;;;1.50;0.60;;;;;;;-145.69;100.00;52484.00;5113380;28;20225;-84
2023/03/09 00:58:28;;;;;;;1.17;0.70;;;;;;;-145.69;100.00;52464.19;5113345;28;20228;-82
2023/03/09 01:00:56;;;;;;;0.70;0.57;;;;;;;-145.69;100.00;52450.31;5113089;28;20197;-83
2023/03/09 01:03:23;;;;;;;1.13;0.50;;;;;;;-145.69;100.00;52470.13;5113738;28;20596;-83
2023/03/09 01:05:50;;;;;;;0.53;0.47;;;;;;;-145.69;100.00;52480.03;5114377;28;20686;-83
2023/03/09 01:08:17;;;;;;;1.43;0.53;;;;;;;-145.69;100.00;52450.31;5114234;28;20201;-83
2023/03/09 01:10:44;;;;;;;2.10;0.50;;;;;;;-145.69;100.00;52503.81;5113028;28;20220;-81
2023/03/09 01:13:11;;;;;;;0.93;0.60;;;;;;;-145.69;100.00;52491.91;5113352;28;20200;-83
2023/03/09 01:15:44;;;;;;;2.67;0.70;;;;;;;-145.69;100.00;52460.22;5112634;28;20295;-83
2023/03/09 01:18:12;;;;;;;3.27;0.73;;;;;;;-145.69;100.00;52480.03;5116788;28;20198;-82
2023/03/09 01:20:38;;;;;;;3.23;0.80;;;;;;;-145.69;100.00;52507.75;5116646;28;20198;-83
2023/03/09 01:23:05;;;;;;;2.20;0.80;;;;;;;-145.69;100.00;52513.69;5116453;28;20201;-82
2023/03/09 01:25:32;;;;;;;3.20;0.80;;;;;;;-145.69;100.00;52523.59;5116679;28;20202;-84
2023/03/09 01:27:58;;;;;;;0.70;0.70;;;;;;;-145.69;100.00;52482.00;5116538;28;20197;-84
2023/03/09 01:30:25;;;;;;;0.80;0.60;;;;;;;-145.69;100.00;52487.97;5117056;28;20205;-83
2023/03/09 01:32:53;;;;;;;1.87;0.87;;;;;;;-145.69;100.00;52499.84;5117917;28;20678;-84
2023/03/09 01:35:21;;;;;;;3.47;0.87;;;;;;;-145.69;100.00;52493.91;5117532;28;20228;-83
2023/03/09 01:37:47;;;;;;;0.73;0.70;;;;;;;-145.69;100.00;52505.78;5117143;28;20208;-83
2023/03/09 01:40:18;;;;;;;1.53;0.77;;;;;;;-145.69;100.00;52472.13;5116352;28;20558;-83
2023/03/09 01:42:53;;;;;;;1.23;0.70;;;;;;;-145.69;100.00;52525.59;5116497;28;20702;-84
2023/03/09 01:45:59;;;;;;;2.13;0.67;;;;;;;-145.69;100.00;52499.84;5117602;28;20188;-84
2023/03/09 01:48:25;;;;;;;2.07;0.90;;;;;;;-145.69;100.00;52484.00;5118076;28;20718;-84
2023/03/09 01:50:54;;;;;;;3.03;0.80;;;;;;;-145.69;100.00;52480.03;5118505;28;20647;-84
2023/03/09 01:53:20;;;;;;;1.00;0.63;;;;;;;-145.69;100.00;52495.88;5119745;28;20193;-84
2023/03/09 01:55:52;;;;;;;3.07;0.87;;;;;;;-145.69;100.00;52519.63;5115290;28;20237;-84
2023/03/09 01:58:25;;;;;;;2.40;0.73;;;;;;;-145.69;100.00;52511.72;5123152;28;20273;-84
2023/03/09 02:00:54;;;;;;;1.73;0.80;;;;;;;-145.69;100.00;52507.75;5119572;28;20202;-83
2023/03/09 02:03:23;;;;;;;1.13;0.70;;;;;;;-145.69;100.00;52533.50;5117444;28;20220;-84
2023/03/09 02:05:56;;;;;;;3.13;0.70;;;;;;;-145.69;100.00;52480.03;5117991;28;20212;-83
2023/03/09 02:08:25;;;;;;;2.53;0.90;;;;;;;-145.69;100.00;52503.81;5119357;28;20267;-84
2023/03/09 02:10:56;;;;;;;2.03;0.60;;;;;;;-145.69;100.00;52515.69;5118152;28;20208;-84
2023/03/09 02:13:28;;;;;;;2.07;0.80;;;;;;;-145.69;100.00;52543.41;5116280;28;20201;-82
2023/03/09 02:15:57;;;;;;;1.30;0.83;;;;;;;-145.69;100.00;52491.91;5115319;28;20297;-82
2023/03/09 02:18:24;;;;;;;4.23;0.70;;;;;;;-145.69;100.00;52519.63;5115322;28;20196;-82
2023/03/09 02:21:02;;;;;;;1.97;0.70;;;;;;;-145.69;100.00;52507.75;5114924;28;20708;-81
2023/03/09 02:23:37;;;;;;;3.63;0.80;;;;;;;-145.69;100.00;52503.81;5115281;28;20192;-81
2023/03/09 02:26:12;;;;;;;4.40;1.70;;;;;;;-145.69;100.00;52503.81;5115298;28;20664;-82
2023/03/09 02:28:42;;;;;;;0.53;0.53;;;;;;;-145.69;100.00;52539.44;5114195;28;20216;-82
2023/03/09 02:31:09;;;;;;;1.83;1.00;;;;;;;-145.69;100.00;52531.53;5115539;28;20227;-83
2023/03/09 02:33:36;;;;;;;1.80;0.90;;;;;;;-145.69;100.00;52539.44;5114918;28;20224;-82
2023/03/09 02:36:05;;;;;;;1.23;0.87;;;;;;;-145.69;100.00;52523.59;5115169;28;20221;-83
2023/03/09 02:38:32;;;;;;;2.00;0.70;;;;;;;-145.69;100.00;52521.63;5115046;28;20197;-83
2023/03/09 02:41:00;;;;;;;5.17;1.30;;;;;;;-145.69;100.00;52547.38;5115019;28;20731;-83
2023/03/09 02:43:31;;;;;;;3.13;0.90;;;;;;;-145.69;100.00;52527.56;5115502;28;20197;-84
2023/03/09 02:45:59;;;;;;;1.43;0.70;;;;;;;-145.69;100.00;52557.28;5115172;28;20202;-84
2023/03/09 02:48:26;;;;;;;1.23;1.00;;;;;;;-145.69;100.00;52507.75;5114987;28;20209;-84
2023/03/09 02:50:53;;;;;;;2.10;1.07;;;;;;;-145.69;100.00;52535.47;5114992;28;20209;-84
2023/03/09 02:53:20;;;;;;;5.37;0.90;;;;;;;-145.69;100.00;52535.47;5114527;28;20209;-83
2023/03/09 02:55:47;;;;;;;1.67;0.90;;;;;;;-145.69;100.00;52517.66;5114112;28;20217;-82
2023/03/09 02:58:13;;;;;;;3.20;1.20;;;;;;;-145.69;100.00;52585.00;5114871;28;20205;-82
2023/03/09 03:00:40;;;;;;;3.13;1.10;;;;;;;-145.69;100.00;52499.84;5114583;28;20664;-82
2023/03/09 03:03:10;;;;;;;2.10;1.40;;;;;;;-145.69;100.00;52501.81;5114579;28;20292;-82
2023/03/09 03:05:38;;;;;;;4.53;1.43;;;;;;;-145.69;100.00;52499.84;5114979;28;20241;-81
2023/03/09 03:08:04;;;;;;;3.53;1.57;;;;;;;-145.69;100.00;52491.91;5114514;28;20206;-81
2023/03/09 03:10:31;;;;;;;3.40;1.33;;;;;;;-145.69;100.00;52537.47;5114529;28;20203;-81
2023/03/09 03:12:58;;;;;;;2.83;1.20;;;;;;;-145.69;100.00;52501.81;5114176;28;20193;-82
2023/03/09 03:15:24;;;;;;;5.55;1.65;;;;;;;-145.69;100.00;52485.97;5112810;28;20506;-81
2023/03/09 03:17:51;;;;;;;3.77;1.23;;;;;;;-145.69;100.00;52511.72;5114095;28;20768;-81
2023/03/09 03:20:19;;;;;;;2.80;1.10;;;;;;;-145.69;100.00;52487.97;5114261;28;20204;-82
2023/03/09 03:22:45;;;;;;;5.90;1.33;;;;;;;-145.69;100.00;52487.97;5114015;28;20186;-82
2023/03/09 03:25:12;;;;;;;3.30;1.37;;;;;;;-145.69;100.00;52533.50;5114187;28;20696;-82
2023/03/09 03:27:39;;;;;;;2.87;1.20;;;;;;;-145.69;100.00;52515.69;5113674;28;20205;-82
2023/03/09 03:30:08;;;;;;;4.03;1.17;;;;;;;-145.69;100.00;52482.00;5113733;28;20205;-81
2023/03/09 03:32:35;;;;;;;5.80;1.23;;;;;;;-145.69;100.00;52474.09;5114162;28;20212;-81
2023/03/09 03:35:04;;;;;;;2.03;1.00;;;;;;;-145.69;100.00;52509.75;5114221;28;20201;-82
2023/03/09 03:37:33;;;;;;;5.03;1.30;;;;;;;-145.69;100.00;52507.75;5113968;28;20256;-82
2023/03/09 03:39:59;;;;;;;3.50;0.93;;;;;;;-145.69;100.00;52499.84;5113444;28;20549;-82
2023/03/09 03:42:26;;;;;;;3.90;0.90;;;;;;;-145.69;100.00;52509.75;5113391;28;20248;-81
2023/03/09 03:44:52;;;;;;;2.77;1.27;;;;;;;-145.69;100.00;52474.09;5113722;28;20276;-80
2023/03/09 03:47:18;;;;;;;4.43;1.00;;;;;;;-145.69;100.00;52497.84;5113597;28;20198;-81
2023/03/09 03:49:45;;;;;;;1.57;0.90;;;;;;;-145.69;100.00;52509.75;5113499;28;20204;-82
2023/03/09 03:52:12;;;;;;;2.20;0.93;;;;;;;-145.69;100.00;52491.91;5113622;28;20193;-82
2023/03/09 03:54:40;;;;;;;1.37;0.77;;;;;;;-145.69;100.00;52501.81;5113776;28;20201;-82
2023/03/09 03:57:06;;;;;;;4.47;1.43;;;;;;;-145.69;100.00;52515.69;5113622;28;20232;-82
2023/03/09 03:59:33;;;;;;;4.07;1.03;;;;;;;-145.69;100.00;52507.75;5114537;28;20205;-83
2023/03/09 04:02:00;;;;;;;4.03;1.07;;;;;;;-145.69;100.00;52501.81;5113946;28;20648;-83
2023/03/09 04:04:26;;;;;;;2.03;1.00;;;;;;;-145.69;100.00;52509.75;5110978;28;20204;-84
2023/03/09 04:06:53;;;;;;;6.97;0.90;;;;;;;-145.69;100.00;52493.91;5093694;28;20194;-82
2023/03/09 04:09:19;;;;;;;1.77;0.70;;;;;;;-145.69;100.00;52525.59;5092925;28;20206;-82
2023/03/09 04:11:47;;;;;;;3.30;0.80;;;;;;;-145.69;100.00;52487.97;5093124;28;20198;-83
2023/03/09 04:14:15;;;;;;;3.13;1.00;;;;;;;-145.69;100.00;52495.88;5094540;28;20198;-82
2023/03/09 04:16:41;;;;;;;2.30;0.80;;;;;;;-145.69;100.00;52519.63;5113344;28;20316;-83
2023/03/09 04:19:08;;;;;;;5.33;1.10;;;;;;;-145.69;100.00;52495.88;5113418;28;20296;-81
2023/03/09 04:21:36;;;;;;;2.07;1.23;;;;;;;-145.69;100.00;52519.63;5113291;28;20201;-81
2023/03/09 04:24:03;;;;;;;3.70;1.20;;;;;;;-145.69;100.00;52484.00;5112982;28;20488;-82
2023/03/09 04:26:29;;;;;;;3.70;1.10;;;;;;;-145.69;100.00;52511.72;5112831;28;20201;-82
2023/03/09 04:28:57;;;;;;;5.27;0.90;;;;;;;-145.69;100.00;52517.66;5113239;28;20194;-83
2023/03/09 04:31:24;;;;;;;3.37;0.90;;;;;;;-145.69;100.00;52519.63;5113249;28;20201;-82
2023/03/09 04:33:50;;;;;;;3.53;1.00;;;;;;;-145.69;100.00;52523.59;5113292;28;20193;-82
2023/03/09 04:36:17;;;;;;;3.33;0.90;;;;;;;-145.69;100.00;52547.38;5112939;28;20208;-82
2023/03/09 04:38:43;;;;;;;2.33;1.10;;;;;;;-145.69;100.00;52491.91;5112982;28;20207;-83
2023/03/09 04:41:12;;;;;;;3.33;1.13;;;;;;;-145.69;100.00;52517.66;5113136;28;20591;-82
2023/03/09 04:43:38;;;;;;;2.20;1.10;;;;;;;-145.69;100.00;52555.28;5112841;28;20201;-82
2023/03/09 04:46:06;;;;;;;2.53;1.17;;;;;;;-145.69;100.00;52533.50;5112907;28;20654;-82
2023/03/09 04:48:33;;;;;;;6.40;1.47;;;;;;;-145.69;100.00;52521.63;5113226;28;20198;-82
2023/03/09 04:50:59;;;;;;;2.53;1.23;;;;;;;-145.69;100.00;52529.53;5112824;28;20198;-83
2023/03/09 04:53:26;;;;;;;3.73;1.23;;;;;;;-145.69;100.00;52495.88;5115660;28;20225;-82
2023/03/09 04:55:58;;;;;;;6.03;1.30;;;;;;;-145.69;100.00;52517.66;5116538;28;20201;-82
2023/03/09 04:58:24;;;;;;;5.23;1.27;;;;;;;-145.69;100.00;52515.69;5117169;28;20228;-82
2023/03/09 05:00:51;;;;;;;3.47;1.60;;;;;;;-145.69;100.00;52545.38;5116999;28;20205;-82
2023/03/09 05:03:19;;;;;;;5.17;1.40;;;;;;;-145.69;100.00;52503.81;5116914;28;20197;-83
2023/03/09 05:05:48;;;;;;;3.27;1.10;;;;;;;-145.69;100.00;52487.97;5116646;28;20657;-83
2023/03/09 05:08:14;;;;;;;3.03;1.10;;;;;;;-145.69;100.00;52503.81;5117613;28;20283;-82
2023/03/09 05:10:43;;;;;;;3.73;1.70;;;;;;;-145.69;100.00;52495.88;5116860;28;20201;-82
2023/03/09 05:13:15;;;;;;;9.60;1.40;;;;;;;-145.69;100.00;52537.47;5116847;28;20197;-83
2023/03/09 05:15:42;;;;;;;8.90;1.53;;;;;;;-145.69;100.00;52478.06;5116566;28;20280;-83
2023/03/09 05:18:11;;;;;;;5.10;1.10;;;;;;;-145.69;100.00;52507.75;5115885;28;20225;-82
2023/03/09 05:20:39;;;;;;;8.10;1.33;;;;;;;-145.69;100.00;52521.63;5116744;28;20251;-83
2023/03/09 05:23:11;;;;;;;12.77;4.33;;;;;;;-145.69;100.00;52527.56;5117479;28;20378;-83
2023/03/09 05:25:37;;;;;;;11.67;2.87;;;;;;;-145.69;100.00;52551.31;5117870;28;20220;-83
2023/03/09 05:28:06;;;;;;;10.03;1.40;;;;;;;-145.69;100.00;52499.84;5116753;28;20205;-83
2023/03/09 05:30:33;;;;;;;7.00;1.30;;;;;;;-145.69;100.00;52515.69;5117593;28;20198;-83
2023/03/09 05:32:59;;;;;;;3.73;1.30;;;;;;;-145.69;100.00;52523.59;5116389;28;20643;-82
2023/03/09 05:35:29;;;;;;;4.17;1.30;;;;;;;-145.69;100.00;52527.56;5117318;28;20236;-83
2023/03/09 05:37:59;;;;;;;5.40;1.10;;;;;;;-145.69;100.00;52525.59;5118146;28;20233;-84
2023/03/09 05:40:26;;;;;;;2.80;1.10;;;;;;;-145.69;100.00;52482.00;5117931;28;20196;-83
2023/03/09 05:42:52;;;;;;;5.83;1.37;;;;;;;-145.69;100.00;52489.94;5117741;28;20587;-83
2023/03/09 05:45:19;;;;;;;7.03;1.30;;;;;;;-145.69;100.00;52531.53;5117393;28;20662;-83
2023/03/09 05:47:45;;;;;;;3.17;1.10;;;;;;;-145.69;100.00;52503.81;5116857;28;20204;-83
2023/03/09 05:50:13;;;;;;;9.43;1.10;;;;;;;-145.69;100.00;52517.66;5116695;28;20190;-84
2023/03/09 05:52:40;;;;;;;3.30;1.17;;;;;;;-145.69;100.00;52501.81;5122569;28;20214;-84
2023/03/09 05:55:13;;;;;;;8.00;1.23;;;;;;;-145.69;100.00;52531.53;5118252;28;20201;-84
2023/03/09 05:57:39;;;;;;;4.70;1.23;;;;;;;-145.69;100.00;52527.56;5116562;28;20236;-83
2023/03/09 06:00:09;;;;;;;2.97;1.33;;;;;;;-145.69;100.00;52515.69;5118274;27;20201;-84
2023/03/09 06:02:36;;;;;;;3.30;1.20;;;;;;;-145.69;100.00;52539.44;5118419;28;20583;-83
2023/03/09 06:05:03;;;;;;;12.17;1.60;;;;;;;-145.69;100.00;52531.53;5120607;28;20198;-84
2023/03/09 06:07:30;;;;;;;11.13;1.60;;;;;;;-145.69;100.00;52555.28;5101320;28;20209;-84
2023/03/09 06:09:56;;;;;;;4.70;1.40;;;;;;;-145.69;100.00;52519.63;5099419;28;20201;-83
2023/03/09 06:12:25;;;;;;;12.00;1.80;;;;;;;-145.69;100.00;52484.00;5113751;28;20190;-83
2023/03/09 06:14:52;;;;;;;7.50;1.10;;;;;;;-145.69;100.00;52535.47;5118923;28;20266;-84
2023/03/09 06:17:19;;;;;;;5.93;1.27;;;;;;;-145.69;100.00;52543.41;5118966;28;20274;-84
2023/03/09 06:19:45;;;;;;;7.30;1.50;;;;;;;-145.69;100.00;52491.91;5118934;28;20207;-83
2023/03/09 06:22:16;;;;;;;8.10;1.63;;;;;;;-145.69;100.00;52515.69;5119640;28;20208;-83
2023/03/09 06:24:43;;;;;;;9.30;1.90;;;;;;;-145.69;100.00;52525.59;5122588;28;20219;-84
2023/03/09 06:27:12;;;;;;;12.93;1.73;;;;;;;-145.69;100.00;52527.56;5122570;28;20243;-84
2023/03/09 06:29:40;;;;;;;14.70;1.80;;;;;;;-145.69;100.00;52523.59;5122496;28;20228;-83
2023/03/09 06:32:10;;;;;;;8.93;1.50;;;;;;;-145.69;100.00;52535.47;5123533;28;20717;-84
2023/03/09 06:34:42;;;;;;;11.53;1.40;;;;;;;-145.69;100.00;52547.38;5121391;28;20197;-83
2023/03/09 06:37:08;;;;;;;7.33;1.40;;;;;;;-145.69;100.00;52515.69;5119885;28;20221;-83
2023/03/09 06:39:35;;;;;;;8.37;1.63;;;;;;;-145.69;100.00;52497.84;5120969;28;20193;-84
2023/03/09 06:42:01;;;;;;;12.53;2.20;;;;;;;-145.69;100.00;52545.38;5120887;28;20289;-83
2023/03/09 06:47:10;;;;;;;8.93;1.57;;;;;;;-145.69;100.00;52519.63;5114526;28;20201;-84
2023/03/09 06:49:38;;;;;;;7.63;1.57;;;;;;;-145.69;100.00;52529.53;5118051;28;20196;-83
2023/03/09 06:52:09;;;;;;;7.70;1.73;;;;;;;-145.69;100.00;52539.44;5118318;28;20201;-84
2023/03/09 06:54:38;;;;;;;9.03;1.50;;;;;;;-145.69;100.00;52511.72;5119748;28;20205;-84
2023/03/09 06:57:05;;;;;;;10.50;1.50;;;;;;;-145.69;100.00;52503.81;5120012;28;20652;-85
2023/03/09 06:59:31;;;;;;;6.80;1.73;;;;;;;-145.69;100.00;52531.53;5120050;28;20203;-84
2023/03/09 07:01:58;;;;;;;6.10;1.30;;;;;;;-145.69;100.00;52523.59;5120291;28;20643;-84
2023/03/09 07:04:26;;;;;;;14.87;1.90;;;;;;;-145.69;100.00;52509.75;5118159;28;20197;-84
2023/03/09 07:06:52;;;;;;;5.40;1.33;;;;;;;-145.69;100.00;52470.13;5118848;28;20201;-84
2023/03/09 07:09:20;;;;;;;2.10;0.93;;;;;;;-145.69;100.00;52517.66;5117168;28;20634;-84
2023/03/09 07:11:48;;;;;;;7.77;1.20;;;;;;;-145.69;100.00;52507.75;5118814;28;20220;-85
2023/03/09 07:14:19;;;;;;;10.80;1.30;;;;;;;-145.69;100.00;52531.53;5115485;28;20667;-84
2023/03/09 07:16:51;;;;;;;8.27;1.60;;;;;;;-145.69;100.00;52478.06;5117194;28;20205;-84
2023/03/09 07:19:18;;;;;;;7.97;1.83;;;;;;;-145.69;100.00;52507.75;5115050;28;20670;-84
2023/03/09 07:21:46;;;;;;;10.03;1.87;;;;;;;-145.69;100.00;52491.91;5116739;28;20204;-84
2023/03/09 07:24:13;;;;;;;8.13;1.80;;;;;;;-145.69;100.00;52513.69;5114850;28;20585;-83
2023/03/09 07:26:39;;;;;;;4.63;1.47;;;;;;;-145.69;100.00;52485.97;5116185;28;20201;-84
2023/03/09 07:29:06;;;;;;;10.17;1.80;;;;;;;-145.69;100.00;52503.81;5114596;28;20259;-84
2023/03/09 07:31:38;;;;;;;6.60;1.50;;;;;;;-145.69;100.00;52535.47;5121553;28;20197;-83
2023/03/09 07:34:07;;;;;;;6.53;1.20;;;;;;;-145.69;100.00;52511.72;5116492;28;20204;-84
2023/03/09 07:36:34;;;;;;;7.70;1.60;;;;;;;-145.69;100.00;52495.88;5113666;28;20917;-85
2023/03/09 07:39:02;;;;;;;7.50;1.37;;;;;;;-145.69;100.00;52503.81;5114430;28;20221;-85
2023/03/09 07:41:28;;;;;;;4.30;1.60;;;;;;;-145.69;100.00;52499.84;5113577;28;20221;-85
2023/03/09 07:43:55;;;;;;;5.03;1.40;;;;;;;-145.69;100.00;52487.97;5114020;28;20678;-84
2023/03/09 07:46:22;;;;;;;8.20;1.33;;;;;;;-145.69;100.00;52509.75;5114373;28;20231;-85
2023/03/09 07:48:51;;;;;;;2.87;1.20;;;;;;;-145.69;100.00;52515.69;5113994;28;20198;-85
2023/03/09 07:51:18;;;;;;;7.43;1.50;;;;;;;-145.69;100.00;52535.47;5113858;28;20194;-85
2023/03/09 07:53:45;;;;;;;5.77;1.43;;;;;;;-145.69;100.00;52529.53;5114372;28;20221;-85
2023/03/09 07:56:13;;;;;;;9.67;1.40;;;;;;;-145.69;100.00;52513.69;5113810;28;20197;-84
2023/03/09 07:58:41;;;;;;;3.83;1.10;;;;;;;-145.69;100.00;52523.59;5114825;28;20587;-83
2023/03/09 08:01:14;;;;;;;2.70;1.10;;;;;;;-145.69;100.00;52515.69;5115146;28;20213;-84
2023/03/09 08:03:40;;;;;;;7.87;1.30;;;;;;;-145.69;100.00;52515.69;5115410;28;20201;-85
2023/03/09 08:06:09;;;;;;;6.10;1.20;;;;;;;-145.69;100.00;52497.84;5110732;28;20658;-84
2023/03/09 08:08:38;;;;;;;9.70;1.33;;;;;;;-145.69;100.00;52557.28;5114632;28;20204;-84
2023/03/09 08:11:08;;;;;;;10.87;1.63;;;;;;;-145.69;100.00;52478.06;5113383;28;20204;-85
2023/03/09 08:13:36;;;;;;;4.83;1.20;;;;;;;-145.69;100.00;52478.06;5114455;28;20194;-84
2023/03/09 08:16:06;;;;;;;6.27;1.23;;;;;;;-145.69;100.00;52539.44;5115085;28;20197;-85
2023/03/09 08:18:34;;;;;;;8.27;1.30;;;;;;;-145.69;100.00;52503.81;5114322;28;20229;-84
2023/03/09 08:21:08;;;;;;;7.20;1.20;;;;;;;-145.69;100.00;52478.06;5114088;28;20204;-84
2023/03/09 08:23:36;;;;;;;3.00;1.13;;;;;;;-145.69;100.00;52515.69;5114216;28;20202;-84
2023/03/09 08:26:03;;;;;;;7.40;1.00;;;;;;;-145.69;100.00;52519.63;5112881;28;20204;-84
2023/03/09 08:28:30;;;;;;;6.40;1.20;;;;;;;-145.69;100.00;52480.03;5113585;28;20292;-85
2023/03/09 08:31:00;;;;;;;4.27;0.73;;;;;;;-145.69;100.00;52487.97;5115569;28;20197;-84
2023/03/09 08:33:27;;;;;;;2.03;0.90;;;;;;;-145.69;100.00;52484.00;5114518;28;20284;-84
2023/03/09 08:35:54;;;;;;;9.30;1.20;;;;;;;-145.69;100.00;52499.84;5116148;28;20529;-84
2023/03/09 08:38:20;;;;;;;10.00;1.07;;;;;;;-145.69;100.00;52531.53;5114193;28;20225;-84
2023/03/09 08:40:47;;;;;;;4.10;1.00;;;;;;;-145.69;100.00;52489.94;5115626;28;20662;-82
2023/03/09 08:43:16;;;;;;;2.13;0.90;;;;;;;-145.69;100.00;52507.75;5116859;28;20204;-83
2023/03/09 08:45:43;;;;;;;2.73;0.70;;;;;;;-145.69;100.00;52474.09;5115794;28;20202;-84
2023/03/09 08:48:13;;;;;;;3.57;0.87;;;;;;;-145.69;100.00;52460.22;5117937;28;20201;-82
2023/03/09 08:50:41;;;;;;;2.87;1.03;;;;;;;-145.69;100.00;52493.91;5119134;28;20189;-83
2023/03/09 08:53:07;;;;;;;4.63;1.00;;;;;;;-145.69;100.00;52487.97;5118205;28;20194;-83
2023/03/09 08:55:40;;;;;;;5.80;0.80;;;;;;;-145.69;100.00;52485.97;5114721;28;20287;-84
2023/03/09 08:58:07;;;;;;;4.00;1.20;;;;;;;-145.69;100.00;52491.91;5115810;28;20227;-83
2023/03/09 09:00:39;;;;;;;6.87;1.30;;;;;;;-145.69;100.00;52484.00;5117464;28;20196;-83
2023/03/09 09:03:07;;;;;;;3.30;0.90;;;;;;;-145.69;100.00;52495.88;5115182;28;20717;-82
2023/03/09 09:05:36;;;;;;;4.80;0.97;;;;;;;-145.69;100.00;52503.81;5115427;28;20205;-84
2023/03/09 09:08:08;;;;;;;3.80;1.00;;;;;;;-145.69;100.00;52472.13;5117601;28;20251;-84
2023/03/09 09:10:39;;;;;;;4.17;0.97;;;;;;;-145.69;100.00;52491.91;5118971;28;20194;-83
2023/03/09 09:13:06;;;;;;;4.17;0.90;;;;;;;-145.69;100.00;52495.88;5120440;28;20280;-82
2023/03/09 09:15:33;;;;;;;2.80;1.00;;;;;;;-145.69;100.00;52499.84;5121257;28;20284;-84
2023/03/09 09:18:03;;;;;;;3.23;0.80;;;;;;;-145.69;100.00;52491.91;5115676;28;20308;-85
2023/03/09 09:20:32;;;;;;;6.10;0.90;;;;;;;-145.69;100.00;52480.03;5112753;28;20196;-85
2023/03/09 09:23:00;;;;;;;8.10;1.40;;;;;;;-145.69;100.00;52478.06;5113680;28;20186;-84
2023/03/09 09:25:29;;;;;;;4.17;1.13;;;;;;;-145.69;100.00;52470.13;5113171;28;20198;-84
2023/03/09 09:27:56;;;;;;;2.37;1.00;;;;;;;-145.69;100.00;52452.31;5112954;28;20198;-85
2023/03/09 09:30:23;;;;;;;7.17;0.97;;;;;;;-145.69;100.00;52484.00;5112147;28;20194;-84
2023/03/09 09:32:55;;;;;;;2.70;0.70;;;;;;;-145.69;100.00;52474.09;5113128;28;20197;-83
2023/03/09 09:35:22;;;;;;;4.22;0.80;;;;;;;-145.69;100.00;52478.06;5111430;28;20438;-83
2023/03/09 09:37:54;;;;;;;1.63;0.70;;;;;;;-145.69;100.00;52476.06;5113408;28;20205;-84
2023/03/09 09:40:28;;;;;;;2.40;0.83;;;;;;;-145.69;100.00;52484.00;5116594;28;20288;-81
2023/03/09 09:42:56;;;;;;;2.93;1.00;;;;;;;-145.69;100.00;52480.03;5114125;28;20293;-82
2023/03/09 09:45:34;;;;;;;4.05;0.98;;;;;;;-145.69;100.00;52456.28;5116294;28;20446;-79
2023/03/09 09:48:07;;;;;;;2.37;0.80;;;;;;;-145.69;100.00;52446.38;5131221;27;20279;-79
2023/03/09 09:50:57;;;;;;;4.73;0.93;;;;;;;-145.69;100.00;52480.03;5126975;27;20190;-78
2023/03/09 09:53:35;;;;;;;4.73;0.87;;;;;;;-145.69;100.00;52476.06;5117717;27;20586;-80
2023/03/09 09:56:04;;;;;;;3.33;0.93;;;;;;;-145.69;100.00;52493.91;5116335;28;20670;-82
2023/03/09 09:58:38;;;;;;;4.03;0.83;;;;;;;-145.69;100.00;52485.97;5117142;28;20230;-82
2023/03/09 10:01:18;;;;;;;4.53;0.93;;;;;;;-145.69;100.00;52472.13;5117672;28;20227;-81
2023/03/09 10:03:54;;;;;;;6.43;1.67;;;;;;;-145.69;100.00;52474.09;5116822;28;20208;-81
2023/03/09 10:06:25;;;;;;;6.77;1.23;;;;;;;-145.69;100.00;52458.25;5118284;28;20686;-81
2023/03/09 10:08:56;;;;;;;1.77;0.80;;;;;;;-145.69;100.00;52462.22;5118873;28;20265;-81
2023/03/09 10:11:28;;;;;;;10.80;1.17;;;;;;;-145.69;100.00;52442.41;5108799;28;20252;-81
2023/03/09 10:14:02;;;;;;;8.67;1.40;;;;;;;-145.69;100.00;52440.44;5117004;28;20556;-82
2023/03/09 10:16:34;;;;;;;4.70;1.13;;;;;;;-145.69;100.00;52448.34;5116567;28;20205;-81
2023/03/09 10:19:05;;;;;;;5.77;0.80;;;;;;;-145.69;100.00;52503.81;5106233;28;20221;-80
2023/03/09 10:21:41;;;;;;;6.37;1.17;;;;;;;-145.69;100.00;52468.16;5117630;28;20431;-81
2023/03/09 10:24:20;;;;;;;8.53;1.70;;;;;;;-145.69;100.00;52472.13;5116724;28;20200;-80
2023/03/09 10:26:58;;;;;;;8.37;1.40;;;;;;;-145.69;100.00;52458.25;5115643;28;20587;-81
2023/03/09 10:29:34;;;;;;;5.67;1.03;;;;;;;-145.69;100.00;52426.56;5114850;28;20201;-81
2023/03/09 10:32:05;;;;;;;2.47;0.90;;;;;;;-145.69;100.00;52454.28;5115028;28;20201;-81
2023/03/09 10:34:40;;;;;;;5.53;1.40;;;;;;;-145.69;100.00;52444.38;5114998;28;20200;-82
2023/03/09 10:37:17;;;;;;;7.93;1.43;;;;;;;-145.69;100.00;52450.31;5114470;28;20208;-82
2023/03/09 10:39:45;;;;;;;8.43;1.60;;;;;;;-145.69;96.08;52440.44;5115675;28;20285;-81
2023/03/09 10:42:22;;;;;;;6.00;0.93;;;;;;;-145.69;100.00;52460.22;5116549;28;20307;-82
2023/03/09 10:45:07;;;;;;;6.27;1.20;;;;;;;-145.69;96.47;52440.44;5116099;28;20560;-81
2023/03/09 10:47:52;;;;;;;4.33;1.30;;;;;;;-145.69;99.03;52448.34;5115660;28;20194;-81
2023/03/09 10:50:21;;;;;;;9.07;1.10;;;;;;;-145.69;95.67;52444.38;5115539;28;20193;-81
2023/03/09 10:52:47;;;;;;;9.83;2.83;;;;;;;-145.69;94.60;52428.53;5115773;28;20197;-80
2023/03/09 10:55:45;;;;;;;9.20;2.00;;;;;;;-145.69;93.81;52452.31;5116081;28;20655;-81
2023/03/09 10:58:21;;;;;;;11.20;2.20;;;;;;;-145.69;97.24;52452.31;5070567;28;20205;-81
2023/03/09 11:01:02;;;;;;;12.03;2.37;;;;;;;-145.69;98.74;52412.69;5096083;28;20194;-81
2023/03/09 11:03:37;;;;;;;4.90;1.60;;;;;;;-145.69;98.00;52495.88;5099530;28;20575;-81
2023/03/09 11:06:24;;;;;;;4.43;1.40;;;;;;;-145.69;96.50;52422.59;5115679;28;20197;-80
2023/03/09 11:09:00;;;;;;;4.67;1.30;;;;;;;-145.69;94.79;52422.59;5112178;28;20201;-81
2023/03/09 11:11:28;;;;;;;7.60;1.67;;;;;;;-145.69;92.83;52444.38;5115239;28;20220;-81
2023/03/09 11:13:56;;;;;;;5.07;1.33;;;;;;;-145.69;96.57;52440.44;5115699;28;20198;-81
2023/03/09 11:16:26;;;;;;;8.33;1.43;;;;;;;-145.69;93.99;52448.34;5115414;28;20209;-82
2023/03/09 11:19:06;;;;;;;11.40;1.47;;;;;;;-145.69;92.54;52452.31;5116424;28;20228;-82
2023/03/09 11:21:40;;;;;;;10.13;1.30;;;;;;;-145.69;95.51;52436.47;5115117;28;20254;-81